Live Audio



buiten  Outside


The Shack  The Shack


Woonkamer  Woonkamer


The Shack 2  The Shack 2


Onweer radar Meer informatie blitzortung!


Regen radar Meer informatie rain snow radar


Bezoek onze andere website:

Template documentation
and downloads

And another site



Het weer levert geen direct gevaar op.    Er zijn geen waarschuwingen afgegeven.

METAR rapporten vliegvelden

   
EHAM - Amsterdam/Schiph, Netherlands
Afstand tot: OZO 26 km
Gewijzigd: 21-10-2017 15:25
Licht bewolkt  
Licht bewolkt  
   Wind: ZZW 29.6 km/h
Wind: ZZW 29.6 km/h
Temperatuur: 16°C
Dauwpunt: 11°C
Vochtigheid: 72%
Barometer: 1007 hPa
Bewolking: Few Clouds
Zicht: More then 10 km
Bewolking: Licht bewolkt 975.4 m
EHAM 211325Z 21016KT 180V240 9999 FEW032 16/11 Q1007 NOSIG
EHRD - Rotterdam Airpor, Netherlands
Afstand tot: Z 50 km
Gewijzigd: 21-10-2017 15:25
Gedeeltelijk bewolkt  
Gedeeltelijk bewolkt  
   Wind: ZZW 33.3 km/h
Wind: ZZW 33.3 km/h
Temperatuur: 17°C
Dauwpunt: 9°C
Vochtigheid: 59%
Barometer: 1007 hPa
Bewolking: Partly Cloudy
Zicht: More then 10 km
Bewolking: Gedeeltelijk bewolkt 1158.2 m
EHRD 211325Z AUTO 21018KT 180V250 9999 SCT038 17/09 Q1007 NOSIG
EHQE - Hoorn-A Sea, Netherlands
Afstand tot: NNW 60 km
Gewijzigd: 21-10-2017 15:25
  
  
   Wind: Kalm
Wind: Kalm
EHQE 211325Z AUTO ///31KT 9999 FEW019 15/11 Q1004
EHKD - De Kooy (navy), Netherlands
Afstand tot: NNO 61 km
Gewijzigd: 21-10-2017 15:44
Grotendeels bewolkt  
Grotendeels bewolkt  
   Wind: ZZW 38.9 km/h
Wind: ZZW 38.9 km/h
Temperatuur: 16°C
Dauwpunt: 11°C
Vochtigheid: 72%
Barometer: 1006 hPa
Bewolking: Mostly Cloudy
Zicht: More then 10 km
Bewolking: Licht bewolkt 518.2 m,
Grotendeels bewolkt 762 m,
Grotendeels bewolkt 1005.8 m
EHKD 211344Z AUTO 21021KT 9999 FEW017CB BKN025 BKN033 16/11 Q1006 BLU 21020G30KT 9999 SCT020 BKN050 TEMPO 4500 SHRA FEW010 SCT018CB
EHPG - P11-B Sea, Netherlands
Afstand tot: W 73 km
Gewijzigd: 21-10-2017 15:25
Gedeeltelijk bewolkt  
Gedeeltelijk bewolkt  
   Wind: ZZW 63 km/h
Wind: ZZW 63 km/h
Bewolking: Partly Cloudy
Zicht: More then 10 km
Bewolking: Licht bewolkt 609.6 m,
Gedeeltelijk bewolkt 883.9 m
EHPG 211325Z AUTO 20034KT 160V250 9999 FEW020 SCT029 15/// Q1004
EHSC - Goeree Le Sea, Netherlands
Afstand tot: ZW 74 km
Gewijzigd: 21-10-2017 15:25
  
  
   Wind: ZW 57.4 km/h<br />Gust to 57.4 km/h
Wind: ZW 57.4 km/h
Gust to 57.4 km/h
Temperatuur: 14°C
Dauwpunt: 8°C
Vochtigheid: 67%
Barometer: 1006 hPa
Zicht: 4 km
EHSC 211325Z AUTO 22031G45KT 3900 ///////// 14/08 Q1006 W15/H22

Script ontwikkeld door  Saratoga-weather.org Aangepast voor de template door  Weerstation Leuven

U vindt ons ook hier:

Het Weer Aktueel

UK Metoffice

Weather Underground

AWEKAS

HAMweather, WeatherForYou, PWS Weather

Apparatuur in gebruik:

Weerstation
Davis VP2

Weerprogramma
Weather Display

Weercomputer
Paradigit

Webleverancier
Mijn provider

Davis VP2

Weather Display

Paradigit

Mijn provider